createdAt,value
2019-03-28T00:00:40.143Z,14.37
2019-03-28T00:03:24.943Z,15.33
2019-03-28T00:06:09.915Z,16.90
2019-03-28T00:08:54.620Z,16.43
2019-03-28T00:11:39.530Z,18.53
2019-03-28T00:14:24.587Z,15.43
2019-03-28T00:17:09.158Z,14.13
2019-03-28T00:19:54.069Z,15.20
2019-03-28T00:22:58.478Z,14.47
2019-03-28T00:25:43.252Z,14.37
2019-03-28T00:28:28.415Z,16.47
2019-03-28T00:31:13.350Z,17.47
2019-03-28T00:33:58.023Z,17.30
2019-03-28T00:36:43.081Z,15.53
2019-03-28T00:39:28.303Z,16.30
2019-03-28T00:42:13.233Z,16.00
2019-03-28T00:44:58.439Z,18.63
2019-03-28T00:47:43.484Z,18.47
2019-03-28T00:50:28.647Z,16.70
2019-03-28T00:53:13.499Z,19.50
2019-03-28T00:55:58.803Z,18.77
2019-03-28T01:19:18.536Z,23.47
2019-03-28T01:22:03.308Z,22.60
2019-03-28T01:24:48.417Z,22.47
2019-03-28T01:27:32.868Z,21.83
2019-03-28T01:30:17.698Z,23.93
2019-03-28T01:33:02.097Z,21.50
2019-03-28T01:35:46.585Z,23.90
2019-03-28T01:38:31.027Z,20.47
2019-03-28T01:41:16.246Z,19.93
2019-03-28T01:44:00.733Z,19.17
2019-03-28T01:46:45.317Z,20.47
2019-03-28T01:49:29.962Z,23.30
2019-03-28T01:52:14.590Z,18.50
2019-03-28T01:54:59.402Z,20.47
2019-03-28T01:57:44.372Z,20.63
2019-03-28T02:00:29.318Z,18.30
2019-03-28T02:03:14.156Z,22.33
2019-03-28T02:05:59.072Z,19.27
2019-03-28T02:08:43.972Z,20.87
2019-03-28T02:11:28.460Z,21.27
2019-03-28T02:14:13.059Z,18.20
2019-03-28T02:16:57.672Z,25.23
2019-03-28T02:19:42.181Z,18.10
2019-03-28T02:22:27.293Z,19.07
2019-03-28T02:25:12.008Z,18.97
2019-03-28T02:27:57.023Z,19.97
2019-03-28T02:30:41.668Z,19.67
2019-03-28T02:33:26.195Z,22.00
2019-03-28T02:36:10.784Z,23.33
2019-03-28T02:38:55.514Z,21.53
2019-03-28T02:41:40.019Z,19.27
2019-03-28T02:44:24.708Z,24.63
2019-03-28T02:47:09.262Z,20.83
2019-03-28T02:49:54.224Z,21.97
2019-03-28T02:52:38.645Z,20.57
2019-03-28T02:55:23.847Z,21.67
2019-03-28T02:58:09.079Z,25.37
2019-03-28T03:00:53.802Z,22.60
2019-03-28T03:03:38.304Z,23.47
2019-03-28T03:06:23.188Z,19.83
2019-03-28T03:09:08.151Z,23.87
2019-03-28T03:11:52.931Z,23.37
2019-03-28T03:14:37.854Z,24.93
2019-03-28T03:17:23.158Z,25.57
2019-03-28T03:20:08.419Z,24.00
2019-03-28T03:22:54.510Z,23.70
2019-03-28T03:25:39.374Z,23.23
2019-03-28T03:28:24.047Z,25.30
2019-03-28T03:31:08.666Z,26.43
2019-03-28T03:33:53.282Z,24.37
2019-03-28T03:36:38.523Z,24.70
2019-03-28T03:39:23.539Z,26.50
2019-03-28T03:42:08.653Z,23.77
2019-03-28T03:44:53.962Z,29.77
2019-03-28T03:47:38.405Z,25.07
2019-03-28T03:50:25.081Z,25.13
2019-03-28T03:53:09.557Z,25.50
2019-03-28T03:55:54.183Z,24.43
2019-03-28T03:58:38.637Z,25.70
2019-03-28T04:01:23.226Z,23.73
2019-03-28T04:04:07.864Z,26.27
2019-03-28T04:06:53.077Z,25.47
2019-03-28T04:09:38.018Z,24.33
2019-03-28T04:12:22.809Z,27.60
2019-03-28T04:15:07.969Z,26.50
2019-03-28T04:17:53.217Z,28.07
2019-03-28T04:20:38.083Z,24.47
2019-03-28T04:23:22.777Z,28.03
2019-03-28T04:26:07.528Z,27.17
2019-03-28T04:28:52.512Z,24.23
2019-03-28T04:31:37.256Z,26.90
2019-03-28T04:34:22.717Z,27.53
2019-03-28T04:37:07.479Z,30.27
2019-03-28T04:39:52.224Z,30.50
2019-03-28T04:42:37.297Z,27.73
2019-03-28T04:45:22.521Z,28.93
2019-03-28T04:48:07.367Z,26.50
2019-03-28T04:50:52.461Z,29.97
2019-03-28T04:53:37.646Z,26.43
2019-03-28T04:56:23.073Z,27.50
2019-03-28T04:59:07.684Z,29.30
2019-03-28T05:02:01.263Z,26.80
2019-03-28T05:04:39.294Z,26.80
2019-03-28T05:07:24.281Z,29.43
2019-03-28T05:10:09.615Z,33.00
2019-03-28T05:12:54.487Z,32.97
2019-03-28T05:15:38.822Z,35.77
2019-03-28T05:18:23.562Z,34.97
2019-03-28T05:21:08.102Z,36.23
2019-03-28T05:23:52.977Z,35.50
2019-03-28T05:26:37.718Z,36.00
2019-03-28T05:29:22.716Z,34.23
2019-03-28T05:32:07.387Z,36.47
2019-03-28T05:34:52.105Z,31.53
2019-03-28T05:37:37.063Z,34.87
2019-03-28T05:40:22.938Z,31.40
2019-03-28T05:43:07.842Z,33.70
2019-03-28T05:45:52.902Z,33.07
2019-03-28T05:48:37.831Z,37.50
2019-03-28T05:51:22.332Z,40.03
2019-03-28T05:54:07.156Z,33.20
2019-03-28T05:56:51.464Z,35.67
2019-03-28T05:59:36.410Z,40.93
2019-03-28T06:02:21.118Z,37.43
2019-03-28T06:05:06.128Z,33.83
2019-03-28T06:07:51.140Z,34.77
2019-03-28T06:10:36.485Z,35.87
2019-03-28T06:13:21.416Z,35.33
2019-03-28T06:16:06.166Z,33.23
2019-03-28T06:18:50.939Z,32.60
2019-03-28T06:21:35.604Z,34.70
2019-03-28T06:24:20.728Z,34.60
2019-03-28T06:27:05.297Z,33.77
2019-03-28T06:29:50.197Z,33.70
2019-03-28T06:32:42.868Z,33.53
2019-03-28T06:35:22.012Z,33.13
2019-03-28T06:38:07.036Z,34.50
2019-03-28T06:40:51.643Z,33.10
2019-03-28T06:43:36.137Z,32.97
2019-03-28T06:46:20.740Z,34.97
2019-03-28T06:49:05.185Z,34.53
2019-03-28T06:51:49.905Z,35.67
2019-03-28T06:54:34.494Z,31.00
2019-03-28T06:57:19.155Z,27.00
2019-03-28T07:00:06.916Z,28.07
2019-03-28T07:02:51.421Z,26.20
2019-03-28T07:05:35.927Z,24.03
2019-03-28T07:08:21.815Z,27.20
2019-03-28T07:11:06.825Z,25.97
2019-03-28T07:13:51.433Z,25.97
2019-03-28T07:16:36.186Z,25.70
2019-03-28T07:19:21.235Z,25.47
2019-03-28T07:22:06.238Z,27.83
2019-03-28T07:24:51.125Z,25.77
2019-03-28T07:27:36.000Z,20.90
2019-03-28T07:30:21.104Z,22.87
2019-03-28T07:33:05.661Z,24.67
2019-03-28T07:35:50.892Z,24.27
2019-03-28T07:38:35.775Z,24.87
2019-03-28T07:41:21.072Z,19.40
2019-03-28T07:44:05.431Z,23.43
2019-03-28T07:46:50.231Z,19.03
2019-03-28T07:49:37.609Z,22.00
2019-03-28T07:52:22.025Z,20.63
2019-03-28T07:55:07.487Z,21.87
2019-03-28T07:57:52.112Z,20.70
2019-03-28T08:00:36.689Z,23.17
2019-03-28T08:03:21.421Z,23.57
2019-03-28T08:06:06.137Z,25.17
2019-03-28T08:08:50.616Z,20.57
2019-03-28T08:11:35.393Z,19.20
2019-03-28T08:14:20.362Z,17.30
2019-03-28T08:17:05.438Z,19.70
2019-03-28T08:19:49.877Z,19.00
2019-03-28T08:22:34.547Z,18.20
2019-03-28T08:25:19.571Z,17.63
2019-03-28T08:28:04.109Z,21.00
2019-03-28T08:30:48.886Z,18.50
2019-03-28T08:33:35.650Z,16.67
2019-03-28T08:36:20.894Z,17.47
2019-03-28T08:39:05.798Z,20.90
2019-03-28T08:41:50.832Z,18.73
2019-03-28T08:44:35.783Z,19.43
2019-03-28T08:47:20.934Z,16.00
2019-03-28T08:50:06.653Z,20.10
2019-03-28T08:52:51.684Z,16.60
2019-03-28T08:55:36.795Z,16.77
2019-03-28T08:58:21.660Z,15.40
2019-03-28T09:01:07.235Z,17.63
2019-03-28T09:03:52.132Z,19.40
2019-03-28T09:06:37.001Z,15.70
2019-03-28T09:09:21.677Z,16.80
2019-03-28T09:12:06.730Z,13.33
2019-03-28T09:14:51.734Z,18.53
2019-03-28T09:17:36.717Z,15.77
2019-03-28T09:20:21.615Z,9.63
2019-03-28T09:23:06.544Z,9.27
2019-03-28T09:25:51.456Z,13.90
2019-03-28T09:28:36.326Z,15.37
2019-03-28T09:31:20.905Z,11.67
2019-03-28T09:34:06.075Z,9.23
2019-03-28T09:36:50.711Z,10.23
2019-03-28T09:39:35.452Z,12.03
2019-03-28T09:42:20.335Z,16.50
2019-03-28T09:45:05.628Z,12.93
2019-03-28T09:47:50.627Z,12.00
2019-03-28T09:50:35.254Z,12.83
2019-03-28T09:53:20.296Z,10.63
2019-03-28T09:56:04.806Z,8.97
2019-03-28T09:58:50.110Z,10.27
2019-03-28T10:01:34.746Z,11.73
2019-03-28T10:04:19.145Z,9.57
2019-03-28T10:07:03.954Z,9.50
2019-03-28T10:09:48.887Z,10.07
2019-03-28T10:12:34.366Z,11.10
2019-03-28T10:15:19.455Z,10.60
2019-03-28T10:18:04.772Z,10.60
2019-03-28T10:20:49.849Z,11.13
2019-03-28T10:23:34.841Z,9.90
2019-03-28T10:26:19.365Z,14.03
2019-03-28T10:29:04.068Z,9.30
2019-03-28T10:31:48.745Z,8.83
2019-03-28T10:34:33.796Z,9.03
2019-03-28T10:37:18.720Z,9.70
2019-03-28T10:40:06.051Z,8.57
2019-03-28T10:42:51.157Z,10.67
2019-03-28T10:45:35.770Z,10.47
2019-03-28T10:48:23.380Z,8.33
2019-03-28T10:51:06.949Z,9.57
2019-03-28T10:53:51.503Z,8.00
2019-03-28T10:56:50.769Z,8.83
2019-03-28T10:59:24.029Z,9.87
2019-03-28T11:02:10.080Z,7.50
2019-03-28T11:04:54.990Z,11.10
2019-03-28T11:07:40.014Z,9.20
2019-03-28T11:10:24.691Z,8.28
2019-03-28T11:13:09.898Z,10.80
2019-03-28T11:15:54.905Z,8.47
2019-03-28T11:18:39.721Z,9.80
2019-03-28T11:21:24.673Z,6.03
2019-03-28T11:24:09.420Z,10.18
2019-03-28T11:26:54.248Z,11.78
2019-03-28T11:29:39.042Z,10.13
2019-03-28T11:32:23.906Z,6.73
2019-03-28T11:35:08.583Z,8.83
2019-03-28T11:37:53.565Z,9.50
2019-03-28T11:40:42.722Z,7.30
2019-03-28T11:43:26.126Z,10.80
2019-03-28T11:46:10.930Z,8.20
2019-03-28T11:48:56.160Z,12.13
2019-03-28T11:51:41.050Z,11.43
2019-03-28T11:54:25.867Z,12.37
2019-03-28T11:57:10.816Z,10.07
2019-03-28T11:59:57.968Z,11.67
2019-03-28T12:02:42.836Z,10.43
2019-03-28T12:05:27.681Z,9.67
2019-03-28T12:08:12.405Z,9.47
2019-03-28T12:10:57.679Z,9.37
2019-03-28T12:13:44.959Z,7.30
2019-03-28T12:16:29.392Z,9.87
2019-03-28T12:19:17.501Z,8.80
2019-03-28T12:22:01.000Z,7.77
2019-03-28T12:24:45.665Z,9.23
2019-03-28T12:27:30.656Z,9.57
2019-03-28T12:30:16.403Z,9.70
2019-03-28T12:33:01.925Z,7.83
2019-03-28T12:35:46.951Z,8.17
2019-03-28T12:38:31.893Z,7.70
2019-03-28T12:41:16.871Z,8.57
2019-03-28T12:44:01.871Z,10.27
2019-03-28T12:46:46.860Z,8.60
2019-03-28T12:49:31.797Z,8.83
2019-03-28T12:52:16.418Z,11.07
2019-03-28T12:55:01.035Z,10.60
2019-03-28T12:57:48.228Z,9.40
2019-03-28T13:00:33.327Z,7.63
2019-03-28T13:03:18.275Z,9.67
2019-03-28T13:06:03.222Z,8.23
2019-03-28T13:08:47.733Z,8.53
2019-03-28T13:11:32.510Z,8.83
2019-03-28T13:14:17.461Z,8.90
2019-03-28T13:17:02.419Z,11.23
2019-03-28T13:19:47.409Z,9.63
2019-03-28T13:22:32.443Z,13.23
2019-03-28T13:25:17.384Z,11.43
2019-03-28T13:28:02.719Z,6.90
2019-03-28T13:30:47.624Z,9.43
2019-03-28T13:33:32.835Z,11.10
2019-03-28T13:36:17.360Z,9.97
2019-03-28T13:39:02.449Z,7.73
2019-03-28T13:41:47.205Z,8.20
2019-03-28T13:44:32.158Z,7.50
2019-03-28T13:47:16.900Z,9.13
2019-03-28T13:50:05.045Z,7.30
2019-03-28T13:52:49.977Z,9.83
2019-03-28T13:55:35.042Z,6.67
2019-03-28T13:58:19.648Z,8.57
2019-03-28T14:01:04.245Z,9.00
2019-03-28T14:03:49.337Z,6.60
2019-03-28T14:06:33.949Z,6.83
2019-03-28T14:09:19.233Z,7.40
2019-03-28T14:12:04.425Z,11.25
2019-03-28T14:14:49.406Z,15.37
2019-03-28T14:17:35.056Z,11.12
2019-03-28T14:20:22.369Z,8.93
2019-03-28T14:23:06.898Z,7.03
2019-03-28T14:25:51.769Z,10.87
2019-03-28T14:28:36.989Z,10.17
2019-03-28T14:31:22.109Z,9.27
2019-03-28T14:34:07.271Z,8.63
2019-03-28T14:36:52.207Z,8.20
2019-03-28T14:39:37.114Z,8.60
2019-03-28T14:42:21.680Z,8.90
2019-03-28T14:45:06.919Z,9.00
2019-03-28T14:47:52.047Z,8.20
2019-03-28T14:50:38.175Z,6.75
2019-03-28T14:53:23.349Z,8.10
2019-03-28T14:56:08.442Z,7.53
2019-03-28T14:58:54.594Z,8.27
2019-03-28T15:01:39.574Z,6.70
2019-03-28T15:04:24.557Z,8.47
2019-03-28T15:07:09.640Z,7.20
2019-03-28T15:09:54.683Z,7.27
2019-03-28T15:12:39.743Z,9.13
2019-03-28T15:15:24.327Z,8.30
2019-03-28T15:18:09.516Z,10.37
2019-03-28T15:20:53.959Z,8.33
2019-03-28T15:23:39.085Z,6.00
2019-03-28T15:26:24.386Z,9.30
2019-03-28T15:29:09.154Z,11.30
2019-03-28T15:31:53.964Z,15.43
2019-03-28T15:34:39.012Z,11.23
2019-03-28T15:37:23.942Z,10.00
2019-03-28T15:40:09.009Z,11.43
2019-03-28T15:42:53.741Z,9.73
2019-03-28T15:45:38.834Z,9.10
2019-03-28T15:48:23.818Z,8.23
2019-03-28T15:51:08.938Z,8.87
2019-03-28T15:53:53.932Z,9.27
2019-03-28T15:56:38.834Z,7.67
2019-03-28T15:59:23.588Z,8.50
2019-03-28T16:02:08.712Z,6.73
2019-03-28T16:04:53.667Z,10.40
2019-03-28T16:07:38.766Z,7.87
2019-03-28T16:10:23.873Z,7.53
2019-03-28T16:13:08.748Z,8.63
2019-03-28T16:15:54.211Z,6.63
2019-03-28T16:18:39.617Z,9.10
2019-03-28T16:21:26.716Z,8.00
2019-03-28T16:24:11.550Z,9.47
2019-03-28T16:26:56.489Z,6.73
2019-03-28T16:29:41.675Z,6.67
2019-03-28T16:32:26.617Z,6.63
2019-03-28T16:35:11.617Z,9.67
2019-03-28T16:37:56.523Z,7.97
2019-03-28T16:40:41.663Z,8.90
2019-03-28T16:43:26.912Z,7.30
2019-03-28T16:46:11.906Z,8.33
2019-03-28T16:48:57.014Z,8.37
2019-03-28T16:51:43.467Z,7.20
2019-03-28T16:54:28.229Z,8.10
2019-03-28T16:57:13.304Z,8.73
2019-03-28T16:59:58.541Z,9.13
2019-03-28T17:02:43.505Z,8.40
2019-03-28T17:05:29.560Z,10.27
2019-03-28T17:08:15.082Z,6.43
2019-03-28T17:11:00.182Z,7.53
2019-03-28T17:13:46.478Z,6.87
2019-03-28T17:16:31.314Z,9.10
2019-03-28T17:19:16.534Z,9.37
2019-03-28T17:22:02.000Z,6.13
2019-03-28T17:24:47.061Z,8.30
2019-03-28T17:27:32.198Z,9.33
2019-03-28T17:30:17.185Z,6.83
2019-03-28T17:33:02.332Z,9.63
2019-03-28T17:35:47.554Z,9.40
2019-03-28T17:38:32.331Z,6.97
2019-03-28T17:41:17.976Z,7.73
2019-03-28T17:44:02.718Z,8.70
2019-03-28T17:46:48.009Z,10.23
2019-03-28T17:49:33.045Z,5.50
2019-03-28T17:52:18.090Z,5.70
2019-03-28T17:55:04.375Z,7.73
2019-03-28T17:57:49.524Z,8.10
2019-03-28T18:00:34.769Z,8.07
2019-03-28T18:03:30.526Z,7.37
2019-03-28T18:06:09.440Z,9.87
2019-03-28T18:08:59.877Z,6.93
2019-03-28T18:11:45.138Z,8.53
2019-03-28T18:14:30.378Z,6.67
2019-03-28T18:17:15.559Z,9.27
2019-03-28T18:20:00.589Z,10.30
2019-03-28T18:22:45.621Z,9.03
2019-03-28T18:25:30.933Z,8.70
2019-03-28T18:28:15.994Z,9.10
2019-03-28T18:31:01.550Z,8.37
2019-03-28T18:33:46.721Z,8.53
2019-03-28T18:36:32.203Z,7.40
2019-03-28T18:39:17.439Z,8.43
2019-03-28T18:42:02.234Z,8.87
2019-03-28T18:44:47.397Z,8.47
2019-03-28T18:47:32.533Z,10.03
2019-03-28T18:50:17.815Z,9.10
2019-03-28T18:53:02.977Z,10.60
2019-03-28T18:55:48.203Z,8.87
2019-03-28T18:58:33.297Z,9.47
2019-03-28T19:01:18.334Z,8.93
2019-03-28T19:04:03.395Z,8.93
2019-03-28T19:06:50.308Z,9.93
2019-03-28T19:09:35.558Z,10.07
2019-03-28T19:12:21.123Z,8.77
2019-03-28T19:15:07.214Z,14.83
2019-03-28T19:17:52.477Z,10.33
2019-03-28T19:20:37.614Z,12.33
2019-03-28T19:23:22.818Z,10.47
2019-03-28T19:26:10.612Z,8.53
2019-03-28T19:28:56.288Z,8.40
2019-03-28T19:31:41.446Z,6.17
2019-03-28T19:34:26.561Z,5.93
2019-03-28T19:37:11.867Z,6.10
2019-03-28T19:39:56.785Z,7.73
2019-03-28T19:42:42.101Z,7.27
2019-03-28T19:45:35.912Z,8.30
2019-03-28T19:48:21.198Z,9.60
2019-03-28T19:51:06.225Z,9.33
2019-03-28T19:53:51.611Z,8.57
2019-03-28T19:56:36.561Z,8.23
2019-03-28T19:59:21.905Z,9.27
2019-03-28T20:02:07.947Z,8.40
2019-03-28T20:04:53.193Z,9.13
2019-03-28T20:07:38.180Z,9.87
2019-03-28T20:10:23.134Z,11.00
2019-03-28T20:13:08.371Z,10.43
2019-03-28T20:15:53.553Z,9.67
2019-03-28T20:18:38.848Z,11.33
2019-03-28T20:21:23.902Z,12.03
2019-03-28T20:24:08.998Z,12.10
2019-03-28T20:26:54.433Z,9.60
2019-03-28T20:29:40.050Z,11.43
2019-03-28T20:32:24.977Z,10.63
2019-03-28T20:35:10.833Z,10.03
2019-03-28T20:37:56.306Z,11.13
2019-03-28T20:40:43.351Z,11.30
2019-03-28T20:43:28.464Z,13.47
2019-03-28T20:46:13.511Z,11.63
2019-03-28T20:48:58.831Z,10.43
2019-03-28T20:51:43.992Z,10.90
2019-03-28T20:54:28.843Z,11.20
2019-03-28T20:57:14.067Z,13.30
2019-03-28T20:59:59.420Z,15.77
2019-03-28T21:02:44.418Z,13.97
2019-03-28T21:05:29.556Z,17.40
2019-03-28T21:08:15.137Z,17.63
2019-03-28T21:11:00.066Z,14.43
2019-03-28T21:13:44.949Z,11.73
2019-03-28T21:16:29.861Z,12.20
2019-03-28T21:19:15.174Z,11.10
2019-03-28T21:22:00.023Z,14.73
2019-03-28T21:24:44.842Z,13.50
2019-03-28T21:27:29.842Z,15.53
2019-03-28T21:30:18.281Z,17.17
2019-03-28T21:33:02.098Z,14.47
2019-03-28T21:35:47.072Z,14.77
2019-03-28T21:38:32.714Z,13.23
2019-03-28T21:41:17.545Z,14.03
2019-03-28T21:44:02.748Z,13.43
2019-03-28T21:46:47.715Z,14.37
2019-03-28T21:49:32.786Z,11.63
2019-03-28T21:52:17.819Z,14.87
2019-03-28T21:55:05.266Z,11.73
2019-03-28T21:57:50.058Z,14.10
2019-03-28T22:00:34.732Z,14.77
2019-03-28T22:03:19.976Z,13.17
2019-03-28T22:06:05.071Z,14.43
2019-03-28T22:08:50.265Z,14.50
2019-03-28T22:11:35.478Z,12.37
2019-03-28T22:14:20.508Z,11.40
2019-03-28T22:17:05.657Z,14.73
2019-03-28T22:19:51.676Z,12.83
2019-03-28T22:22:37.078Z,14.70
2019-03-28T22:25:21.722Z,11.60
2019-03-28T22:28:06.641Z,16.57
2019-03-28T22:30:51.661Z,14.03
2019-03-28T22:33:36.391Z,15.53
2019-03-28T22:36:21.791Z,13.73
2019-03-28T22:39:06.856Z,13.60
2019-03-28T22:41:51.648Z,16.63
2019-03-28T22:44:36.382Z,14.87
2019-03-28T22:47:20.816Z,15.27
2019-03-28T22:50:05.852Z,15.60
2019-03-28T22:52:50.735Z,16.80
2019-03-28T22:55:35.740Z,17.30
2019-03-28T22:58:20.816Z,14.90
2019-03-28T23:01:06.042Z,18.73
2019-03-28T23:03:50.966Z,16.13
2019-03-28T23:06:35.871Z,14.47
2019-03-28T23:09:20.384Z,16.03
2019-03-28T23:12:04.966Z,15.57
2019-03-28T23:14:49.943Z,14.70
2019-03-28T23:17:34.552Z,18.57
2019-03-28T23:20:19.604Z,17.10
2019-03-28T23:23:04.122Z,16.43
2019-03-28T23:25:48.897Z,14.63
2019-03-28T23:28:39.845Z,14.70
2019-03-28T23:31:24.627Z,15.70
2019-03-28T23:34:09.892Z,15.13
2019-03-28T23:36:54.777Z,15.60
2019-03-28T23:39:39.935Z,16.80
2019-03-28T23:42:24.926Z,17.33
2019-03-28T23:45:10.302Z,18.40
2019-03-28T23:47:55.765Z,17.57
2019-03-28T23:50:40.512Z,18.63
2019-03-28T23:53:25.630Z,15.23
2019-03-28T23:56:10.856Z,19.27
2019-03-28T23:58:56.031Z,16.00
